Terminal Aerodrome Forecast
Issued by NWS

Home | Current Version | Previous Version | Text Only | Print | Product List | Glossary On
Versions: 1 2 3 4 5 6 7 8 9 10 11 12 13 14 15 16 17
064
FTUS45 KTFX 241123
TAFHVR
TAF
KHVR 241123Z 2412/2512 24009KT P6SM BKN025
     FM241500 24009KT P6SM SCT025 BKN050
     FM241800 27011KT P6SM VCSH SCT050 BKN080
     FM250400 20004KT P6SM SCT100=

USA.gov is the U.S. government's official web portal to all federal, state and local government web resources and services.